sensor_id;sensor_type;location;lat;lon;timestamp;pressure;altitude;pressure_sealevel;temperature;humidity
7309;BME280;3695;53.330;9.876;2024-01-30T00:01:48;101806.31;;;9.06;59.35
7309;BME280;3695;53.330;9.876;2024-01-30T00:04:14;101809.84;;;9.07;59.30
7309;BME280;3695;53.330;9.876;2024-01-30T00:06:43;101804.25;;;9.18;60.06
7309;BME280;3695;53.330;9.876;2024-01-30T00:09:09;101803.69;;;9.06;59.22
7309;BME280;3695;53.330;9.876;2024-01-30T00:11:36;101804.75;;;9.10;59.66
7309;BME280;3695;53.330;9.876;2024-01-30T00:14:03;101803.31;;;8.98;59.91
7309;BME280;3695;53.330;9.876;2024-01-30T00:16:29;101805.38;;;8.86;60.13
7309;BME280;3695;53.330;9.876;2024-01-30T00:18:56;101802.16;;;8.92;60.03
7309;BME280;3695;53.330;9.876;2024-01-30T00:21:23;101796.19;;;8.59;60.03
7309;BME280;3695;53.330;9.876;2024-01-30T00:23:51;101794.72;;;8.46;59.96
7309;BME280;3695;53.330;9.876;2024-01-30T00:26:18;101791.66;;;8.37;60.70
7309;BME280;3695;53.330;9.876;2024-01-30T00:28:44;101788.63;;;8.30;60.43
7309;BME280;3695;53.330;9.876;2024-01-30T00:31:11;101782.06;;;8.55;60.53
7309;BME280;3695;53.330;9.876;2024-01-30T00:33:38;101783.63;;;8.34;60.56
7309;BME280;3695;53.330;9.876;2024-01-30T00:36:05;101789.38;;;8.45;60.39
7309;BME280;3695;53.330;9.876;2024-01-30T00:38:32;101779.69;;;8.08;60.37
7309;BME280;3695;53.330;9.876;2024-01-30T00:41:00;101788.41;;;7.91;61.18
7309;BME280;3695;53.330;9.876;2024-01-30T00:43:25;101777.97;;;8.27;61.57
7309;BME280;3695;53.330;9.876;2024-01-30T00:45:52;101782.00;;;8.36;61.40
7309;BME280;3695;53.330;9.876;2024-01-30T00:48:18;101780.53;;;8.07;61.38
7309;BME280;3695;53.330;9.876;2024-01-30T00:50:45;101783.28;;;8.28;61.26
7309;BME280;3695;53.330;9.876;2024-01-30T00:53:11;101783.44;;;8.13;61.36
7309;BME280;3695;53.330;9.876;2024-01-30T00:55:38;101789.25;;;8.08;61.30
7309;BME280;3695;53.330;9.876;2024-01-30T00:58:06;101784.78;;;8.05;61.51
7309;BME280;3695;53.330;9.876;2024-01-30T01:00:33;101783.19;;;8.09;61.83
7309;BME280;3695;53.330;9.876;2024-01-30T01:02:59;101785.75;;;8.07;61.38
7309;BME280;3695;53.330;9.876;2024-01-30T01:05:26;101788.13;;;8.03;61.55
7309;BME280;3695;53.330;9.876;2024-01-30T01:07:52;101787.22;;;8.02;61.97
7309;BME280;3695;53.330;9.876;2024-01-30T01:10:19;101792.91;;;7.94;61.96
7309;BME280;3695;53.330;9.876;2024-01-30T01:12:46;101776.41;;;7.95;61.92
7309;BME280;3695;53.330;9.876;2024-01-30T01:15:14;101785.47;;;8.01;61.76
7309;BME280;3695;53.330;9.876;2024-01-30T01:17:40;101789.03;;;8.03;62.18
7309;BME280;3695;53.330;9.876;2024-01-30T01:20:08;101782.31;;;8.26;61.58
7309;BME280;3695;53.330;9.876;2024-01-30T01:22:35;101776.66;;;8.35;61.57
7309;BME280;3695;53.330;9.876;2024-01-30T01:25:04;101786.84;;;8.46;61.53
7309;BME280;3695;53.330;9.876;2024-01-30T01:27:32;101783.63;;;8.34;61.45
7309;BME280;3695;53.330;9.876;2024-01-30T01:29:59;101780.22;;;8.01;62.07
7309;BME280;3695;53.330;9.876;2024-01-30T01:32:27;101777.03;;;8.25;61.46
7309;BME280;3695;53.330;9.876;2024-01-30T01:34:54;101782.03;;;7.86;61.83
7309;BME280;3695;53.330;9.876;2024-01-30T01:37:21;101788.56;;;7.94;62.17
7309;BME280;3695;53.330;9.876;2024-01-30T01:39:47;101778.41;;;8.00;62.10
7309;BME280;3695;53.330;9.876;2024-01-30T01:42:14;101770.38;;;8.13;62.11
7309;BME280;3695;53.330;9.876;2024-01-30T01:44:40;101769.75;;;8.19;61.92
7309;BME280;3695;53.330;9.876;2024-01-30T01:47:07;101765.25;;;8.16;61.73
7309;BME280;3695;53.330;9.876;2024-01-30T01:49:35;101762.72;;;8.00;61.84
7309;BME280;3695;53.330;9.876;2024-01-30T01:52:02;101763.63;;;8.01;61.70
7309;BME280;3695;53.330;9.876;2024-01-30T01:54:29;101760.69;;;7.95;61.85
7309;BME280;3695;53.330;9.876;2024-01-30T01:56:56;101759.91;;;7.97;62.65
7309;BME280;3695;53.330;9.876;2024-01-30T01:59:23;101760.75;;;8.30;62.26
7309;BME280;3695;53.330;9.876;2024-01-30T02:01:51;101758.22;;;8.32;61.97
7309;BME280;3695;53.330;9.876;2024-01-30T02:04:19;101758.38;;;8.18;61.94
7309;BME280;3695;53.330;9.876;2024-01-30T02:06:46;101764.97;;;8.10;61.93
7309;BME280;3695;53.330;9.876;2024-01-30T02:09:13;101755.16;;;8.06;62.08
7309;BME280;3695;53.330;9.876;2024-01-30T02:11:40;101751.66;;;8.24;62.30
7309;BME280;3695;53.330;9.876;2024-01-30T02:14:07;101749.25;;;8.28;61.92
7309;BME280;3695;53.330;9.876;2024-01-30T02:16:33;101742.97;;;8.07;62.52
7309;BME280;3695;53.330;9.876;2024-01-30T02:19:00;101741.91;;;8.21;62.49
7309;BME280;3695;53.330;9.876;2024-01-30T02:21:28;101735.47;;;8.14;62.10
7309;BME280;3695;53.330;9.876;2024-01-30T02:23:55;101728.91;;;8.23;62.44
7309;BME280;3695;53.330;9.876;2024-01-30T02:26:22;101727.81;;;8.35;62.58
7309;BME280;3695;53.330;9.876;2024-01-30T02:28:48;101725.28;;;8.37;62.51
7309;BME280;3695;53.330;9.876;2024-01-30T02:31:15;101722.38;;;8.31;62.22
7309;BME280;3695;53.330;9.876;2024-01-30T02:33:41;101717.59;;;8.59;62.39
7309;BME280;3695;53.330;9.876;2024-01-30T02:36:08;101713.19;;;8.58;61.98
7309;BME280;3695;53.330;9.876;2024-01-30T02:38:36;101709.78;;;8.78;62.08
7309;BME280;3695;53.330;9.876;2024-01-30T02:41:03;101715.25;;;8.65;61.87
7309;BME280;3695;53.330;9.876;2024-01-30T02:43:29;101705.44;;;8.79;61.79
7309;BME280;3695;53.330;9.876;2024-01-30T02:45:56;101711.81;;;8.66;61.84
7309;BME280;3695;53.330;9.876;2024-01-30T02:48:23;101702.56;;;8.55;62.14
7309;BME280;3695;53.330;9.876;2024-01-30T02:50:50;101708.41;;;8.49;61.95
7309;BME280;3695;53.330;9.876;2024-01-30T02:53:16;101706.50;;;8.65;61.97
7309;BME280;3695;53.330;9.876;2024-01-30T02:55:44;101706.25;;;8.41;62.47
7309;BME280;3695;53.330;9.876;2024-01-30T02:58:11;101705.44;;;8.42;62.34
7309;BME280;3695;53.330;9.876;2024-01-30T03:00:37;101704.34;;;8.56;62.00
7309;BME280;3695;53.330;9.876;2024-01-30T03:03:04;101709.00;;;8.44;62.71
7309;BME280;3695;53.330;9.876;2024-01-30T03:05:31;101709.16;;;8.47;62.80
7309;BME280;3695;53.330;9.876;2024-01-30T03:07:57;101702.28;;;8.49;62.07
7309;BME280;3695;53.330;9.876;2024-01-30T03:10:24;101699.59;;;8.47;62.55
7309;BME280;3695;53.330;9.876;2024-01-30T03:12:51;101695.94;;;8.63;62.96
7309;BME280;3695;53.330;9.876;2024-01-30T03:15:18;101698.72;;;8.66;62.34
7309;BME280;3695;53.330;9.876;2024-01-30T03:17:44;101701.41;;;8.87;62.43
7309;BME280;3695;53.330;9.876;2024-01-30T03:20:11;101701.34;;;8.66;62.17
7309;BME280;3695;53.330;9.876;2024-01-30T03:22:38;101691.59;;;8.64;62.38
7309;BME280;3695;53.330;9.876;2024-01-30T03:25:05;101685.72;;;8.50;62.03
7309;BME280;3695;53.330;9.876;2024-01-30T03:27:31;101684.56;;;8.63;62.56
7309;BME280;3695;53.330;9.876;2024-01-30T03:29:59;101691.22;;;8.74;62.23
7309;BME280;3695;53.330;9.876;2024-01-30T03:32:25;101688.31;;;8.68;62.26
7309;BME280;3695;53.330;9.876;2024-01-30T03:34:52;101679.34;;;8.27;62.18
7309;BME280;3695;53.330;9.876;2024-01-30T03:37:19;101684.78;;;8.12;62.45
7309;BME280;3695;53.330;9.876;2024-01-30T03:39:45;101683.41;;;8.21;63.17
7309;BME280;3695;53.330;9.876;2024-01-30T03:42:12;101681.19;;;8.10;62.88
7309;BME280;3695;53.330;9.876;2024-01-30T03:44:38;101682.38;;;8.35;63.19
7309;BME280;3695;53.330;9.876;2024-01-30T03:47:06;101673.78;;;8.20;62.50
7309;BME280;3695;53.330;9.876;2024-01-30T03:49:33;101675.25;;;8.14;63.25
7309;BME280;3695;53.330;9.876;2024-01-30T03:51:59;101674.75;;;8.04;63.16
7309;BME280;3695;53.330;9.876;2024-01-30T03:54:26;101671.16;;;8.20;63.07
7309;BME280;3695;53.330;9.876;2024-01-30T03:56:52;101670.09;;;8.34;62.61
7309;BME280;3695;53.330;9.876;2024-01-30T03:59:19;101671.91;;;8.35;62.72
7309;BME280;3695;53.330;9.876;2024-01-30T04:01:49;101663.34;;;8.39;63.13
7309;BME280;3695;53.330;9.876;2024-01-30T04:04:17;101666.44;;;8.48;62.93
7309;BME280;3695;53.330;9.876;2024-01-30T04:06:44;101669.91;;;8.66;63.03
7309;BME280;3695;53.330;9.876;2024-01-30T04:09:10;101668.63;;;8.58;62.56
7309;BME280;3695;53.330;9.876;2024-01-30T04:11:38;101661.31;;;8.51;62.96
7309;BME280;3695;53.330;9.876;2024-01-30T04:14:04;101664.41;;;8.42;63.46
7309;BME280;3695;53.330;9.876;2024-01-30T04:16:31;101664.53;;;8.45;63.02
7309;BME280;3695;53.330;9.876;2024-01-30T04:18:58;101663.34;;;8.21;63.51
7309;BME280;3695;53.330;9.876;2024-01-30T04:21:26;101672.81;;;8.17;63.26
7309;BME280;3695;53.330;9.876;2024-01-30T04:23:53;101670.47;;;8.24;63.58
7309;BME280;3695;53.330;9.876;2024-01-30T04:26:19;101673.41;;;8.12;63.06
7309;BME280;3695;53.330;9.876;2024-01-30T04:28:46;101666.88;;;8.22;64.04
7309;BME280;3695;53.330;9.876;2024-01-30T04:31:13;101666.28;;;8.09;63.48
7309;BME280;3695;53.330;9.876;2024-01-30T04:33:39;101666.16;;;8.06;63.37
7309;BME280;3695;53.330;9.876;2024-01-30T04:36:08;101668.31;;;8.33;64.09
7309;BME280;3695;53.330;9.876;2024-01-30T04:38:36;101674.44;;;8.15;63.92
7309;BME280;3695;53.330;9.876;2024-01-30T04:41:03;101675.34;;;8.34;63.80
7309;BME280;3695;53.330;9.876;2024-01-30T04:43:30;101679.97;;;8.22;63.76
7309;BME280;3695;53.330;9.876;2024-01-30T04:45:56;101681.63;;;8.20;63.75
7309;BME280;3695;53.330;9.876;2024-01-30T04:48:23;101675.63;;;8.22;63.33
7309;BME280;3695;53.330;9.876;2024-01-30T04:50:49;101672.03;;;8.20;63.40
7309;BME280;3695;53.330;9.876;2024-01-30T04:53:16;101662.25;;;7.98;63.34
7309;BME280;3695;53.330;9.876;2024-01-30T04:55:44;101669.44;;;8.02;63.64
7309;BME280;3695;53.330;9.876;2024-01-30T04:58:10;101675.66;;;7.87;63.61
7309;BME280;3695;53.330;9.876;2024-01-30T05:00:37;101678.34;;;7.88;64.08
7309;BME280;3695;53.330;9.876;2024-01-30T05:03:04;101671.16;;;7.84;63.74
7309;BME280;3695;53.330;9.876;2024-01-30T05:05:30;101659.03;;;7.86;64.16
7309;BME280;3695;53.330;9.876;2024-01-30T05:07:57;101666.47;;;7.77;63.80
7309;BME280;3695;53.330;9.876;2024-01-30T05:10:23;101666.81;;;7.67;64.11
7309;BME280;3695;53.330;9.876;2024-01-30T05:12:51;101662.31;;;7.47;64.09
7309;BME280;3695;53.330;9.876;2024-01-30T05:15:18;101667.22;;;7.41;64.49
7309;BME280;3695;53.330;9.876;2024-01-30T05:17:45;101662.34;;;7.48;64.36
7309;BME280;3695;53.330;9.876;2024-01-30T05:20:12;101663.31;;;7.32;64.80
7309;BME280;3695;53.330;9.876;2024-01-30T05:22:39;101660.97;;;7.55;64.17
7309;BME280;3695;53.330;9.876;2024-01-30T05:25:10;101664.44;;;7.38;64.46
7309;BME280;3695;53.330;9.876;2024-01-30T05:27:36;101661.53;;;7.49;64.62
7309;BME280;3695;53.330;9.876;2024-01-30T05:30:05;101668.28;;;7.44;64.78
7309;BME280;3695;53.330;9.876;2024-01-30T05:32:33;101670.66;;;7.23;64.70
7309;BME280;3695;53.330;9.876;2024-01-30T05:35:00;101669.22;;;7.28;64.90
7309;BME280;3695;53.330;9.876;2024-01-30T05:37:26;101666.56;;;7.11;64.81
7309;BME280;3695;53.330;9.876;2024-01-30T05:39:53;101663.03;;;7.44;65.17
7309;BME280;3695;53.330;9.876;2024-01-30T05:42:19;101668.66;;;7.52;64.80
7309;BME280;3695;53.330;9.876;2024-01-30T05:44:46;101660.84;;;7.35;64.63
7309;BME280;3695;53.330;9.876;2024-01-30T05:47:14;101667.56;;;7.30;64.71
7309;BME280;3695;53.330;9.876;2024-01-30T05:49:40;101660.75;;;7.68;64.74
7309;BME280;3695;53.330;9.876;2024-01-30T05:52:07;101657.97;;;7.47;64.75
7309;BME280;3695;53.330;9.876;2024-01-30T05:54:33;101655.41;;;7.49;64.77
7309;BME280;3695;53.330;9.876;2024-01-30T05:57:00;101654.50;;;7.48;65.05
7309;BME280;3695;53.330;9.876;2024-01-30T05:59:26;101646.47;;;7.79;65.23
7309;BME280;3695;53.330;9.876;2024-01-30T06:01:53;101649.56;;;7.88;64.74
7309;BME280;3695;53.330;9.876;2024-01-30T06:04:21;101644.53;;;8.10;64.41
7309;BME280;3695;53.330;9.876;2024-01-30T06:06:47;101646.03;;;7.88;64.37
7309;BME280;3695;53.330;9.876;2024-01-30T06:09:14;101647.38;;;7.97;64.23
7309;BME280;3695;53.330;9.876;2024-01-30T06:11:40;101650.50;;;7.90;64.60
7309;BME280;3695;53.330;9.876;2024-01-30T06:14:07;101646.94;;;8.06;64.43
7309;BME280;3695;53.330;9.876;2024-01-30T06:16:33;101649.06;;;8.14;64.85
7309;BME280;3695;53.330;9.876;2024-01-30T06:19:00;101646.44;;;8.14;64.42
7309;BME280;3695;53.330;9.876;2024-01-30T06:21:28;101646.91;;;8.41;64.44
7309;BME280;3695;53.330;9.876;2024-01-30T06:23:55;101640.56;;;8.36;64.09
7309;BME280;3695;53.330;9.876;2024-01-30T06:26:22;101639.69;;;8.55;64.25
7309;BME280;3695;53.330;9.876;2024-01-30T06:28:48;101640.50;;;8.54;64.77
7309;BME280;3695;53.330;9.876;2024-01-30T06:31:15;101637.81;;;8.52;64.11
7309;BME280;3695;53.330;9.876;2024-01-30T06:33:42;101631.69;;;8.52;64.46
7309;BME280;3695;53.330;9.876;2024-01-30T06:36:08;101627.41;;;8.54;64.47
7309;BME280;3695;53.330;9.876;2024-01-30T06:38:36;101625.44;;;8.50;64.09
7309;BME280;3695;53.330;9.876;2024-01-30T06:41:03;101625.34;;;8.66;64.38
7309;BME280;3695;53.330;9.876;2024-01-30T06:43:29;101621.88;;;8.48;64.55
7309;BME280;3695;53.330;9.876;2024-01-30T06:45:56;101628.59;;;8.61;64.89
7309;BME280;3695;53.330;9.876;2024-01-30T06:48:22;101623.97;;;8.55;64.57
7309;BME280;3695;53.330;9.876;2024-01-30T06:50:49;101621.72;;;8.45;64.78
7309;BME280;3695;53.330;9.876;2024-01-30T06:53:16;101622.44;;;8.60;64.21
7309;BME280;3695;53.330;9.876;2024-01-30T06:55:43;101624.53;;;8.67;64.54
7309;BME280;3695;53.330;9.876;2024-01-30T06:58:10;101626.44;;;8.71;63.93
7309;BME280;3695;53.330;9.876;2024-01-30T07:00:37;101625.53;;;8.71;64.34
7309;BME280;3695;53.330;9.876;2024-01-30T07:03:04;101622.22;;;8.75;64.74
7309;BME280;3695;53.330;9.876;2024-01-30T07:05:31;101618.72;;;8.74;64.64
7309;BME280;3695;53.330;9.876;2024-01-30T07:07:58;101610.84;;;8.74;64.41
7309;BME280;3695;53.330;9.876;2024-01-30T07:10:24;101607.94;;;8.68;64.61
7309;BME280;3695;53.330;9.876;2024-01-30T07:12:52;101611.81;;;8.76;64.12
7309;BME280;3695;53.330;9.876;2024-01-30T07:15:19;101608.22;;;8.93;64.59
7309;BME280;3695;53.330;9.876;2024-01-30T07:17:46;101609.81;;;8.71;64.64
7309;BME280;3695;53.330;9.876;2024-01-30T07:20:13;101604.13;;;8.79;64.99
7309;BME280;3695;53.330;9.876;2024-01-30T07:22:39;101613.25;;;8.89;64.83
7309;BME280;3695;53.330;9.876;2024-01-30T07:25:07;101605.66;;;8.95;64.37
7309;BME280;3695;53.330;9.876;2024-01-30T07:27:33;101612.91;;;8.81;64.47
7309;BME280;3695;53.330;9.876;2024-01-30T07:30:01;101610.84;;;8.74;63.69
7309;BME280;3695;53.330;9.876;2024-01-30T07:32:28;101611.81;;;8.76;65.16
7309;BME280;3695;53.330;9.876;2024-01-30T07:34:54;101617.34;;;8.82;64.96
7309;BME280;3695;53.330;9.876;2024-01-30T07:37:21;101617.19;;;8.98;64.40
7309;BME280;3695;53.330;9.876;2024-01-30T07:39:47;101613.88;;;9.03;64.36
7309;BME280;3695;53.330;9.876;2024-01-30T07:42:14;101616.44;;;9.01;64.62
7309;BME280;3695;53.330;9.876;2024-01-30T07:44:40;101607.66;;;9.01;63.71
7309;BME280;3695;53.330;9.876;2024-01-30T07:47:08;101607.09;;;9.08;64.09
7309;BME280;3695;53.330;9.876;2024-01-30T07:49:35;101604.78;;;8.94;63.89
7309;BME280;3695;53.330;9.876;2024-01-30T07:52:01;101604.31;;;8.84;64.45
7309;BME280;3695;53.330;9.876;2024-01-30T07:54:32;101601.88;;;8.88;64.01
7309;BME280;3695;53.330;9.876;2024-01-30T07:56:59;101599.25;;;8.88;64.81
7309;BME280;3695;53.330;9.876;2024-01-30T07:59:26;101600.78;;;9.03;64.46
7309;BME280;3695;53.330;9.876;2024-01-30T08:01:52;101609.16;;;9.15;64.60
7309;BME280;3695;53.330;9.876;2024-01-30T08:04:20;101603.47;;;9.25;64.47
7309;BME280;3695;53.330;9.876;2024-01-30T08:06:47;101600.31;;;9.13;63.80
7309;BME280;3695;53.330;9.876;2024-01-30T08:09:14;101606.25;;;9.28;64.07
7309;BME280;3695;53.330;9.876;2024-01-30T08:11:40;101606.81;;;9.21;64.03
7309;BME280;3695;53.330;9.876;2024-01-30T08:14:07;101616.59;;;9.25;64.40
7309;BME280;3695;53.330;9.876;2024-01-30T08:16:33;101613.41;;;9.32;64.24
7309;BME280;3695;53.330;9.876;2024-01-30T08:19:00;101605.97;;;9.43;64.16
7309;BME280;3695;53.330;9.876;2024-01-30T08:21:28;101602.25;;;9.17;64.28
7309;BME280;3695;53.330;9.876;2024-01-30T08:23:54;101610.56;;;9.48;64.22
7309;BME280;3695;53.330;9.876;2024-01-30T08:26:21;101611.75;;;9.34;63.66
7309;BME280;3695;53.330;9.876;2024-01-30T08:28:48;101604.75;;;9.34;64.34
7309;BME280;3695;53.330;9.876;2024-01-30T08:31:15;101605.63;;;9.35;64.35
7309;BME280;3695;53.330;9.876;2024-01-30T08:33:42;101598.28;;;9.47;64.49
7309;BME280;3695;53.330;9.876;2024-01-30T08:36:08;101597.88;;;9.59;64.25
7309;BME280;3695;53.330;9.876;2024-01-30T08:38:36;101603.25;;;9.82;63.82
7309;BME280;3695;53.330;9.876;2024-01-30T08:41:03;101588.75;;;9.49;63.99
7309;BME280;3695;53.330;9.876;2024-01-30T08:43:30;101598.78;;;9.59;64.09
7309;BME280;3695;53.330;9.876;2024-01-30T08:45:58;101592.50;;;9.76;63.79
7309;BME280;3695;53.330;9.876;2024-01-30T08:48:25;101593.09;;;9.69;63.91
7309;BME280;3695;53.330;9.876;2024-01-30T08:50:51;101589.91;;;9.99;63.65
7309;BME280;3695;53.330;9.876;2024-01-30T08:53:18;101585.00;;;10.08;63.37
7309;BME280;3695;53.330;9.876;2024-01-30T08:55:46;101578.44;;;9.97;63.84
7309;BME280;3695;53.330;9.876;2024-01-30T08:58:12;101576.06;;;10.03;63.35
7309;BME280;3695;53.330;9.876;2024-01-30T09:00:40;101580.41;;;10.02;63.29
7309;BME280;3695;53.330;9.876;2024-01-30T09:03:07;101579.34;;;9.97;63.43
7309;BME280;3695;53.330;9.876;2024-01-30T09:05:33;101582.38;;;9.86;63.46
7309;BME280;3695;53.330;9.876;2024-01-30T09:08:00;101583.50;;;9.92;63.72
7309;BME280;3695;53.330;9.876;2024-01-30T09:10:26;101596.53;;;10.11;63.23
7309;BME280;3695;53.330;9.876;2024-01-30T09:12:54;101595.03;;;9.96;63.87
7309;BME280;3695;53.330;9.876;2024-01-30T09:15:21;101583.34;;;10.10;63.48
7309;BME280;3695;53.330;9.876;2024-01-30T09:17:47;101592.22;;;10.13;63.80
7309;BME280;3695;53.330;9.876;2024-01-30T09:20:13;101592.78;;;10.27;63.02
7309;BME280;3695;53.330;9.876;2024-01-30T09:22:40;101585.97;;;10.32;63.73
7309;BME280;3695;53.330;9.876;2024-01-30T09:25:07;101591.00;;;10.48;63.88
7309;BME280;3695;53.330;9.876;2024-01-30T09:27:33;101599.22;;;10.57;63.37
7309;BME280;3695;53.330;9.876;2024-01-30T09:30:01;101591.53;;;10.64;62.91
7309;BME280;3695;53.330;9.876;2024-01-30T09:32:28;101598.22;;;10.78;62.87
7309;BME280;3695;53.330;9.876;2024-01-30T09:34:55;101599.22;;;10.81;62.99
7309;BME280;3695;53.330;9.876;2024-01-30T09:37:21;101592.50;;;10.89;62.90
7309;BME280;3695;53.330;9.876;2024-01-30T09:39:48;101600.09;;;11.06;62.39
7309;BME280;3695;53.330;9.876;2024-01-30T09:42:20;101598.41;;;11.08;62.38
7309;BME280;3695;53.330;9.876;2024-01-30T09:44:51;101590.47;;;11.06;62.12
7309;BME280;3695;53.330;9.876;2024-01-30T09:47:19;101597.59;;;11.10;62.60
7309;BME280;3695;53.330;9.876;2024-01-30T09:49:46;101586.09;;;11.32;62.03
7309;BME280;3695;53.330;9.876;2024-01-30T09:52:14;101587.03;;;11.34;62.02
7309;BME280;3695;53.330;9.876;2024-01-30T09:54:41;101585.78;;;11.23;62.12
7309;BME280;3695;53.330;9.876;2024-01-30T09:57:08;101585.84;;;11.24;61.79
7309;BME280;3695;53.330;9.876;2024-01-30T09:59:35;101579.25;;;11.37;61.94
7309;BME280;3695;53.330;9.876;2024-01-30T10:02:01;101577.31;;;11.31;61.96
7309;BME280;3695;53.330;9.876;2024-01-30T10:04:30;101577.72;;;11.43;61.97
7309;BME280;3695;53.330;9.876;2024-01-30T10:06:57;101569.19;;;11.51;61.65
7309;BME280;3695;53.330;9.876;2024-01-30T10:09:25;101570.31;;;11.59;61.69
7309;BME280;3695;53.330;9.876;2024-01-30T10:11:51;101564.97;;;11.56;61.14
7309;BME280;3695;53.330;9.876;2024-01-30T10:14:18;101566.97;;;11.64;61.51
7309;BME280;3695;53.330;9.876;2024-01-30T10:16:45;101563.16;;;11.80;61.30
7309;BME280;3695;53.330;9.876;2024-01-30T10:19:12;101568.31;;;11.77;61.37
7309;BME280;3695;53.330;9.876;2024-01-30T10:21:40;101568.31;;;11.77;61.14
7309;BME280;3695;53.330;9.876;2024-01-30T10:24:07;101563.63;;;11.68;61.29
7309;BME280;3695;53.330;9.876;2024-01-30T10:26:34;101565.97;;;11.86;61.15
7309;BME280;3695;53.330;9.876;2024-01-30T10:29:02;101555.38;;;11.85;61.11
7309;BME280;3695;53.330;9.876;2024-01-30T10:31:29;101561.88;;;11.96;61.07
7309;BME280;3695;53.330;9.876;2024-01-30T10:33:56;101558.66;;;12.04;60.87
7309;BME280;3695;53.330;9.876;2024-01-30T10:36:28;101556.72;;;11.99;60.91
7309;BME280;3695;53.330;9.876;2024-01-30T10:38:59;101557.75;;;12.04;60.25
7309;BME280;3695;53.330;9.876;2024-01-30T10:41:26;101553.28;;;12.01;60.91
7309;BME280;3695;53.330;9.876;2024-01-30T10:43:58;101549.19;;;12.11;60.78
7309;BME280;3695;53.330;9.876;2024-01-30T10:46:31;101547.47;;;12.11;60.77
7309;BME280;3695;53.330;9.876;2024-01-30T10:48:58;101544.31;;;12.24;60.79
7309;BME280;3695;53.330;9.876;2024-01-30T10:51:26;101547.31;;;12.37;60.70
7309;BME280;3695;53.330;9.876;2024-01-30T10:53:53;101544.78;;;12.40;60.38
7309;BME280;3695;53.330;9.876;2024-01-30T10:56:22;101536.38;;;12.54;60.34
7309;BME280;3695;53.330;9.876;2024-01-30T10:58:49;101543.09;;;12.43;60.60
7309;BME280;3695;53.330;9.876;2024-01-30T11:01:17;101532.19;;;12.61;60.49
7309;BME280;3695;53.330;9.876;2024-01-30T11:03:45;101531.03;;;12.51;60.40
7309;BME280;3695;53.330;9.876;2024-01-30T11:06:11;101534.47;;;12.49;60.51
7309;BME280;3695;53.330;9.876;2024-01-30T11:08:39;101526.75;;;12.55;60.68
7309;BME280;3695;53.330;9.876;2024-01-30T11:11:09;101533.34;;;12.71;60.54
7309;BME280;3695;53.330;9.876;2024-01-30T11:13:37;101528.25;;;12.78;59.96
7309;BME280;3695;53.330;9.876;2024-01-30T11:16:04;101538.69;;;12.74;60.24
7309;BME280;3695;53.330;9.876;2024-01-30T11:18:32;101535.50;;;12.85;60.33
7309;BME280;3695;53.330;9.876;2024-01-30T11:20:59;101535.63;;;12.90;60.26
7309;BME280;3695;53.330;9.876;2024-01-30T11:23:27;101541.19;;;13.00;60.15
7309;BME280;3695;53.330;9.876;2024-01-30T11:25:54;101545.69;;;13.04;59.85
7309;BME280;3695;53.330;9.876;2024-01-30T11:28:22;101534.84;;;12.94;60.08
7309;BME280;3695;53.330;9.876;2024-01-30T11:30:51;101534.69;;;12.88;59.98
7309;BME280;3695;53.330;9.876;2024-01-30T11:33:27;101541.31;;;13.05;59.75
7309;BME280;3695;53.330;9.876;2024-01-30T11:35:57;101544.06;;;13.10;59.44
7309;BME280;3695;53.330;9.876;2024-01-30T11:38:25;101533.28;;;13.00;59.94
7309;BME280;3695;53.330;9.876;2024-01-30T11:40:53;101538.06;;;13.15;59.95
7309;BME280;3695;53.330;9.876;2024-01-30T11:43:20;101534.41;;;13.10;59.65
7309;BME280;3695;53.330;9.876;2024-01-30T11:45:47;101533.63;;;13.13;59.39
7309;BME280;3695;53.330;9.876;2024-01-30T11:48:15;101526.16;;;12.98;59.92
7309;BME280;3695;53.330;9.876;2024-01-30T11:50:41;101528.38;;;13.14;59.51
7309;BME280;3695;53.330;9.876;2024-01-30T11:53:09;101538.78;;;13.10;59.62
7309;BME280;3695;53.330;9.876;2024-01-30T11:55:36;101527.38;;;13.11;59.75
7309;BME280;3695;53.330;9.876;2024-01-30T11:58:03;101523.63;;;13.02;59.81
7309;BME280;3695;53.330;9.876;2024-01-30T12:00:30;101522.78;;;13.03;59.82
7309;BME280;3695;53.330;9.876;2024-01-30T12:02:58;101521.34;;;13.15;59.70
7309;BME280;3695;53.330;9.876;2024-01-30T12:05:27;101530.78;;;13.07;59.63
7309;BME280;3695;53.330;9.876;2024-01-30T12:07:54;101527.00;;;12.97;59.95
7309;BME280;3695;53.330;9.876;2024-01-30T12:10:24;101536.50;;;13.22;59.41
7309;BME280;3695;53.330;9.876;2024-01-30T12:12:50;101527.25;;;13.06;59.54
7309;BME280;3695;53.330;9.876;2024-01-30T12:15:18;101522.44;;;12.90;59.69
7309;BME280;3695;53.330;9.876;2024-01-30T12:17:47;101522.50;;;12.93;59.88
7309;BME280;3695;53.330;9.876;2024-01-30T12:20:17;101519.13;;;12.98;59.89
7309;BME280;3695;53.330;9.876;2024-01-30T12:22:47;101502.69;;;13.09;59.89
7309;BME280;3695;53.330;9.876;2024-01-30T12:25:14;101521.97;;;13.06;60.00
7309;BME280;3695;53.330;9.876;2024-01-30T12:27:43;101523.53;;;12.98;59.62
7309;BME280;3695;53.330;9.876;2024-01-30T12:30:11;101520.97;;;13.01;59.94
7309;BME280;3695;53.330;9.876;2024-01-30T12:32:40;101514.06;;;13.06;60.04
7309;BME280;3695;53.330;9.876;2024-01-30T12:35:07;101515.91;;;13.10;59.73
7309;BME280;3695;53.330;9.876;2024-01-30T12:37:34;101518.91;;;13.22;59.54
7309;BME280;3695;53.330;9.876;2024-01-30T12:40:03;101516.75;;;13.08;59.89
7309;BME280;3695;53.330;9.876;2024-01-30T12:42:31;101517.94;;;13.19;59.70
7309;BME280;3695;53.330;9.876;2024-01-30T12:44:58;101517.84;;;13.16;59.79
7309;BME280;3695;53.330;9.876;2024-01-30T12:47:25;101512.66;;;13.19;59.89
7309;BME280;3695;53.330;9.876;2024-01-30T12:49:51;101513.63;;;13.22;59.87
7309;BME280;3695;53.330;9.876;2024-01-30T12:52:20;101521.81;;;13.33;59.97
7309;BME280;3695;53.330;9.876;2024-01-30T12:54:47;101515.31;;;13.20;60.17
7309;BME280;3695;53.330;9.876;2024-01-30T12:57:15;101517.63;;;13.08;60.28
7309;BME280;3695;53.330;9.876;2024-01-30T12:59:41;101519.41;;;13.08;60.38
7309;BME280;3695;53.330;9.876;2024-01-30T13:02:08;101521.94;;;13.04;60.29
7309;BME280;3695;53.330;9.876;2024-01-30T13:04:35;101520.66;;;13.22;60.55
7309;BME280;3695;53.330;9.876;2024-01-30T13:07:02;101523.22;;;13.19;60.39
7309;BME280;3695;53.330;9.876;2024-01-30T13:09:29;101522.59;;;13.29;60.51
7309;BME280;3695;53.330;9.876;2024-01-30T13:11:56;101523.38;;;13.25;60.30
7309;BME280;3695;53.330;9.876;2024-01-30T13:14:24;101524.72;;;13.11;60.57
7309;BME280;3695;53.330;9.876;2024-01-30T13:16:51;101528.50;;;13.19;60.65